17:13
Airports
History
Links
Donate
Help keep this website running!
PayPal
Bitcoin
Information on this page is community maintained and may be outdated or inaccurate and is intended for reference only or PC simulator navigating!
Always use approved charts for navigating.
CET9
JEAN MARIE RIVER
JEAN MARIE RIVER (CET9)
Jean Marie River, Northwest Territories, Canada
4
Lat/Lng:61° 31' 0" N / 120° 36' 60" W
61.516667 / -120.616666
Elevation:470'ft 143mMSL
ID / ICAO:CET9
Runways:1
Longest:(10-28) 756.4m 2,482ft Gravel
Distance To
Airport ID:
Airport Radio Frequencies
CTAF: 123.2
Nearby VORs <50NM
Nearby NDBs
Nearby WeatherUpdated 04-24-17 17:00 GMT
Nearby weather at CYFS, FORT SIMPSON located 26.4 nautical miles from CET9
Altimeter: 30.03
Visibility: 15.0 statute miles
Wind: 5 knots (120°)
Temp: -4°c 25°f
Humidity: 41.9%

METAR: CYFS 241700Z 12005KT 15SM SKC M04/M15 A3003 RMK SLP185

(Powered by phpweather)
Runway 10 / 28
Dimensions:756.4 x 18.3m 2482' x 60'ft
Surface:Gravel
Edge Lights:Low intensity
Runway 10 [A]Runway 28 [B]
Heading:124°TH 304°TH
Lat:
Lng:
61° 31' 7"N
120° 37' 21"W
61° 30' 53"N
120° 36' 38.99"W
Google Map
Nearby Airports
(U) FORT SIMPSON 26.4 NM
CYFS (WX) NW 309°
(C) Trout Lake 77.4 NM
CEU9 SSW 195°
(C) Nahanni Butte 98.0 NM
CBD6 WSW 249°
4 Fort Providence 100.5 NM
CYJP E 97°
4 Mount Flett 115.4 NM
CBN6 WSW 239°
4 Fort Liard 130.5 NM
CYJF SW 227°
4 Pointed Mountain 135.0 NM
CBJ6 SW 232°
VFR Chart
Flight Planning at SkyVector.com